Time;durP1;ratioP1;P1;durP2;ratioP2;P2;SDS_P1;SDS_P2;PMS_P1;PMS_P2;Temp;Humidity;BMP_temperature;BMP_pressure;BME280_temperature;BME280_humidity;BME280_pressure;Samples;Min_cycle;Max_cycle;Signal;HPM_P1;HPM_P2
2022/12/26 00:01:38;;;;;;;6.50;3.70;;;11.30;90.00;;;;;;5041793;28;20068;-61
2022/12/26 00:04:04;;;;;;;5.13;3.45;;;11.30;90.00;;;;;;5045064;28;20017;-61
2022/12/26 00:06:31;;;;;;;5.38;3.67;;;11.30;89.90;;;;;;5071504;28;20072;-61
2022/12/26 00:08:58;;;;;;;5.80;4.30;;;11.30;90.00;;;;;;5051765;28;20495;-61
2022/12/26 00:11:24;;;;;;;6.78;4.30;;;11.30;90.00;;;;;;5029048;28;20029;-61
2022/12/26 00:13:55;;;;;;;9.90;4.40;;;11.30;90.00;;;;;;5052543;28;20434;-61
2022/12/26 00:16:22;;;;;;;7.10;4.18;;;11.30;90.00;;;;;;5050299;28;20071;-60
2022/12/26 00:18:49;;;;;;;5.68;3.95;;;11.30;90.00;;;;;;5047162;28;20021;-61
2022/12/26 00:21:16;;;;;;;8.00;4.05;;;11.30;90.00;;;;;;5041150;28;20067;-61
2022/12/26 00:23:42;;;;;;;9.63;5.32;;;11.30;90.00;;;;;;5057653;28;20033;-61
2022/12/26 00:26:12;;;;;;;6.68;4.63;;;11.20;90.10;;;;;;5043706;28;20388;-62
2022/12/26 00:28:38;;;;;;;9.80;5.93;;;11.20;90.20;;;;;;5044166;28;20115;-61
2022/12/26 00:31:05;;;;;;;11.65;5.57;;;11.20;90.20;;;;;;5048210;28;20158;-61
2022/12/26 00:33:34;;;;;;;9.00;5.80;;;11.10;90.30;;;;;;5048904;28;20161;-61
2022/12/26 00:36:06;;;;;;;10.30;5.28;;;11.20;90.40;;;;;;5050785;28;20029;-61
2022/12/26 00:38:33;;;;;;;9.10;6.13;;;11.20;90.40;;;;;;5058663;28;20033;-61
2022/12/26 00:40:59;;;;;;;10.95;6.80;;;11.20;90.40;;;;;;5050034;28;20017;-61
2022/12/26 00:43:25;;;;;;;12.57;6.28;;;11.10;90.50;;;;;;5053768;28;20033;-61
2022/12/26 00:45:51;;;;;;;10.30;6.22;;;11.10;90.50;;;;;;5045844;28;20025;-61
2022/12/26 00:48:16;;;;;;;11.73;5.78;;;11.10;90.50;;;;;;5042108;28;20033;-61
2022/12/26 00:50:42;;;;;;;13.05;7.47;;;11.20;90.50;;;;;;5046217;28;20029;-61
2022/12/26 00:53:08;;;;;;;12.57;7.00;;;11.20;90.60;;;;;;5049313;28;20044;-61
2022/12/26 00:55:33;;;;;;;9.43;5.60;;;11.10;90.50;;;;;;5047014;28;20434;-61
2022/12/26 00:57:59;;;;;;;35.35;8.27;;;11.20;90.60;;;;;;5054086;28;20463;-61
2022/12/26 01:00:25;;;;;;;14.40;6.75;;;11.20;90.60;;;;;;5042174;28;20511;-61
2022/12/26 01:02:50;;;;;;;15.43;7.40;;;11.20;90.80;;;;;;5051899;28;20032;-61
2022/12/26 01:05:16;;;;;;;11.52;6.78;;;11.20;90.60;;;;;;5048149;28;20120;-61
2022/12/26 01:07:42;;;;;;;14.80;8.18;;;11.20;90.50;;;;;;5037228;28;20029;-61
2022/12/26 01:10:11;;;;;;;14.30;7.88;;;11.20;90.50;;;;;;5045185;28;20043;-61
2022/12/26 01:12:37;;;;;;;15.60;8.75;;;11.20;90.60;;;;;;5039446;28;20167;-61
2022/12/26 01:15:05;;;;;;;12.35;7.40;;;11.20;90.60;;;;;;5048106;28;20099;-61
2022/12/26 01:17:31;;;;;;;10.10;6.63;;;11.20;90.70;;;;;;5044619;28;20374;-61
2022/12/26 01:19:56;;;;;;;13.40;6.65;;;11.20;90.70;;;;;;5048696;28;20039;-60
2022/12/26 01:22:23;;;;;;;9.75;6.35;;;11.20;90.70;;;;;;5048477;28;20029;-60
2022/12/26 01:24:56;;;;;;;10.43;7.40;;;11.20;90.80;;;;;;5046037;28;20017;-60
2022/12/26 01:27:23;;;;;;;14.35;8.00;;;11.20;90.80;;;;;;5043575;28;20071;-60
2022/12/26 01:29:49;;;;;;;14.85;7.95;;;11.20;90.80;;;;;;5051013;28;20119;-61
2022/12/26 01:32:14;;;;;;;14.30;7.00;;;11.20;90.80;;;;;;5049781;28;20152;-61
2022/12/26 01:34:41;;;;;;;8.90;7.10;;;11.30;90.80;;;;;;5050774;28;20040;-61
2022/12/26 01:37:06;;;;;;;12.52;7.65;;;11.30;90.80;;;;;;5044179;28;20102;-60
2022/12/26 01:39:32;;;;;;;11.73;7.43;;;11.30;90.80;;;;;;5050153;28;20531;-60
2022/12/26 01:41:58;;;;;;;12.55;6.97;;;11.20;90.80;;;;;;5051589;28;20021;-62
2022/12/26 01:44:57;;;;;;;11.98;7.88;;;11.20;90.80;;;;;;5039635;28;20135;-61
2022/12/26 01:47:31;;;;;;;9.85;7.07;;;11.30;90.70;;;;;;5046098;28;20083;-60
2022/12/26 01:49:57;;;;;;;10.85;6.32;;;11.30;90.80;;;;;;5046627;28;20041;-60
2022/12/26 01:52:45;;;;;;;9.65;7.03;;;11.30;90.80;;;;;;5038612;28;20120;-60
2022/12/26 01:55:15;;;;;;;11.45;7.05;;;11.30;90.70;;;;;;5071253;28;20562;-60
2022/12/26 01:57:46;;;;;;;9.15;6.65;;;11.30;90.70;;;;;;5051907;28;20548;-60
2022/12/26 02:00:12;;;;;;;9.57;5.13;;;11.30;90.70;;;;;;5050229;28;20052;-60
2022/12/26 02:05:32;;;;;;;10.60;5.35;;;11.30;90.60;;;;;;5057001;28;20063;-61
2022/12/26 02:08:07;;;;;;;12.00;6.70;;;11.30;90.60;;;;;;5039238;28;20033;-60
2022/12/26 02:10:40;;;;;;;10.35;5.53;;;11.30;90.50;;;;;;5039445;28;20083;-60
2022/12/26 02:13:06;;;;;;;10.68;6.40;;;11.30;90.60;;;;;;5048204;28;20026;-61
2022/12/26 02:15:32;;;;;;;10.10;5.82;;;11.30;90.60;;;;;;5037037;28;20025;-61
2022/12/26 02:17:57;;;;;;;9.57;6.55;;;11.30;90.50;;;;;;5052759;28;20033;-65
2022/12/26 02:20:48;;;;;;;9.48;6.45;;;11.30;90.50;;;;;;5052078;28;20048;-61
2022/12/26 02:23:39;;;;;;;9.30;5.68;;;11.30;90.50;;;;;;5053478;28;20112;-60
2022/12/26 02:26:35;;;;;;;10.57;5.63;;;11.30;90.50;;;;;;5038446;28;20061;-61
2022/12/26 02:29:26;;;;;;;9.50;5.90;;;11.30;90.50;;;;;;5050338;28;20021;-60
2022/12/26 02:32:20;;;;;;;11.05;6.47;;;11.30;90.50;;;;;;5037796;28;20087;-61
2022/12/26 02:35:11;;;;;;;9.82;6.50;;;11.20;90.50;;;;;;5036097;28;20573;-61
2022/12/26 02:37:47;;;;;;;8.85;5.57;;;11.20;90.50;;;;;;5047129;28;20060;-61
2022/12/26 02:40:28;;;;;;;9.02;4.43;;;11.30;90.50;;;;;;5055000;28;20036;-61
2022/12/26 02:43:15;;;;;;;7.68;4.97;;;11.30;90.50;;;;;;5038915;28;20237;-60
2022/12/26 02:49:13;;;;;;;10.32;5.40;;;11.30;90.40;;;;;;5040829;28;20048;-60
2022/12/26 03:15:01;;;;;;;10.10;6.28;;;11.20;90.50;;;;;;5043557;28;20047;-61
2022/12/26 03:17:33;;;;;;;10.10;6.90;;;11.20;90.50;;;;;;5033502;28;20037;-60
2022/12/26 03:20:07;;;;;;;10.88;5.97;;;11.20;90.40;;;;;;5047730;28;21780;-60
2022/12/26 03:22:55;;;;;;;10.27;6.20;;;11.20;90.40;;;;;;5051270;28;20097;-60
2022/12/26 03:28:26;;;;;;;12.27;6.30;;;11.10;90.30;;;;;;5045172;28;20396;-61
2022/12/26 03:30:54;;;;;;;8.70;6.07;;;11.10;90.40;;;;;;5050462;28;20047;-60
2022/12/26 03:36:54;;;;;;;9.45;5.80;;;11.10;90.20;;;;;;5054641;28;20059;-61
2022/12/26 04:20:55;;;;;;;14.15;8.00;;;11.10;90.10;;;;;;5043270;28;20044;-61
2022/12/26 04:46:01;;;;;;;12.90;7.43;;;11.10;90.00;;;;;;5032204;28;20076;-61
2022/12/26 04:51:11;;;;;;;10.77;6.95;;;11.20;90.00;;;;;;5038037;28;20453;-61
2022/12/26 04:53:37;;;;;;;11.30;7.28;;;11.20;90.00;;;;;;5047798;28;20104;-61
2022/12/26 04:56:03;;;;;;;9.50;6.55;;;11.20;90.00;;;;;;5048253;28;20041;-61
2022/12/26 04:58:29;;;;;;;11.55;7.18;;;11.20;89.90;;;;;;5046300;28;20032;-61
2022/12/26 05:09:32;;;;;;;9.60;6.00;;;11.20;89.90;;;;;;5043793;28;20392;-61
2022/12/26 05:09:33;;;;;;;10.75;6.97;;;11.20;89.80;;;;;;5046964;28;20075;-61
2022/12/26 05:12:00;;;;;;;10.25;6.88;;;11.20;89.80;;;;;;5048792;28;20017;-60
2022/12/26 05:14:27;;;;;;;9.15;6.35;;;11.10;89.80;;;;;;5046057;28;20403;-61
2022/12/26 05:30:47;;;;;;;7.53;4.80;;;11.00;89.80;;;;;;5052618;28;20040;-60
2022/12/26 05:35:58;;;;;;;6.60;4.32;;;11.00;89.80;;;;;;5053556;28;20082;-61
2022/12/26 05:38:23;;;;;;;6.30;3.90;;;11.00;89.80;;;;;;5046645;28;20484;-60
2022/12/26 05:40:49;;;;;;;6.95;4.15;;;11.00;89.80;;;;;;5048516;28;20028;-61
2022/12/26 05:43:15;;;;;;;9.60;3.60;;;11.00;89.70;;;;;;5036669;28;20056;-61
2022/12/26 05:45:41;;;;;;;4.28;3.20;;;11.00;89.60;;;;;;5036033;28;20025;-61
2022/12/26 05:48:06;;;;;;;5.03;3.45;;;11.00;89.60;;;;;;5047568;28;20029;-61
2022/12/26 05:50:32;;;;;;;4.30;3.15;;;11.00;89.50;;;;;;5043081;28;20100;-61
2022/12/26 05:52:58;;;;;;;5.07;3.72;;;11.00;89.50;;;;;;5048577;28;20036;-60
2022/12/26 05:55:24;;;;;;;3.63;3.28;;;11.00;89.40;;;;;;5045589;28;20017;-61
2022/12/26 05:57:50;;;;;;;4.35;3.15;;;11.00;89.40;;;;;;5037184;28;20469;-60
2022/12/26 06:00:16;;;;;;;5.30;3.78;;;10.90;89.30;;;;;;5045512;28;20155;-60
2022/12/26 06:02:42;;;;;;;3.58;2.28;;;10.90;89.10;;;;;;5049436;28;20032;-61
2022/12/26 06:05:08;;;;;;;3.65;2.42;;;10.90;89.30;;;;;;5049785;28;20025;-60
2022/12/26 06:07:34;;;;;;;3.75;3.05;;;10.90;89.20;;;;;;5048908;28;20086;-60
2022/12/26 06:09:59;;;;;;;4.57;2.30;;;10.90;89.20;;;;;;5042663;28;20057;-60
2022/12/26 06:12:25;;;;;;;2.28;1.67;;;10.90;89.10;;;;;;5042688;28;20033;-61
2022/12/26 06:14:50;;;;;;;2.80;2.08;;;10.90;89.10;;;;;;5045724;28;20572;-61
2022/12/26 06:17:16;;;;;;;2.83;2.03;;;10.90;89.10;;;;;;5048967;28;20060;-60
2022/12/26 06:19:42;;;;;;;2.25;1.67;;;10.90;89.10;;;;;;5044099;28;20108;-60
2022/12/26 06:22:08;;;;;;;2.60;1.60;;;10.80;89.10;;;;;;5053004;28;20472;-61
2022/12/26 06:24:33;;;;;;;2.38;1.88;;;10.80;89.00;;;;;;5047778;28;20033;-60
2022/12/26 06:26:59;;;;;;;2.33;1.60;;;10.80;89.00;;;;;;5036319;28;20033;-61
2022/12/26 06:29:25;;;;;;;2.60;2.17;;;10.80;88.90;;;;;;5048972;28;20384;-60
2022/12/26 06:31:50;;;;;;;2.28;1.75;;;10.80;89.00;;;;;;5038707;28;20041;-60
2022/12/26 06:34:17;;;;;;;2.40;1.73;;;10.80;89.10;;;;;;5058916;28;20032;-60
2022/12/26 06:36:43;;;;;;;3.10;1.90;;;10.80;89.00;;;;;;5042620;28;20032;-60
2022/12/26 06:39:08;;;;;;;2.00;1.60;;;10.80;89.00;;;;;;5051672;28;20025;-60
2022/12/26 06:41:34;;;;;;;2.78;1.98;;;10.80;88.90;;;;;;5046511;28;20033;-60
2022/12/26 06:44:00;;;;;;;3.15;1.73;;;10.70;88.90;;;;;;5050164;28;20079;-60
2022/12/26 06:46:26;;;;;;;1.88;1.45;;;10.70;88.90;;;;;;5048175;28;20124;-60
2022/12/26 06:48:52;;;;;;;2.22;1.40;;;10.70;88.90;;;;;;5047485;28;20103;-60
2022/12/26 06:51:21;;;;;;;3.10;1.70;;;10.80;88.90;;;;;;5047623;28;20051;-59
2022/12/26 06:53:48;;;;;;;2.22;1.40;;;10.80;88.90;;;;;;5050924;28;20123;-60
2022/12/26 06:56:17;;;;;;;2.42;2.03;;;10.80;88.80;;;;;;5048568;28;20470;-60
2022/12/26 06:58:43;;;;;;;2.38;1.60;;;10.80;88.70;;;;;;5045417;28;20030;-62
2022/12/26 07:01:11;;;;;;;2.97;2.03;;;10.80;88.80;;;;;;5066071;28;20045;-60
2022/12/26 07:03:37;;;;;;;2.88;1.65;;;10.80;88.80;;;;;;5042716;28;20017;-60
2022/12/26 07:06:11;;;;;;;3.47;1.88;;;10.80;88.90;;;;;;5045708;28;20055;-63
2022/12/26 07:08:37;;;;;;;2.70;1.98;;;10.80;88.90;;;;;;5037093;28;20031;-64
2022/12/26 07:11:03;;;;;;;2.88;2.05;;;10.80;88.80;;;;;;5040309;28;20408;-63
2022/12/26 07:13:29;;;;;;;2.10;1.77;;;10.80;88.80;;;;;;5045688;28;20039;-63
2022/12/26 07:15:58;;;;;;;4.10;2.15;;;10.80;88.80;;;;;;5058073;28;20834;-64
2022/12/26 07:18:23;;;;;;;2.70;2.10;;;10.80;88.80;;;;;;5046797;28;20029;-63
2022/12/26 07:20:49;;;;;;;3.80;2.25;;;10.80;88.70;;;;;;5028275;28;20124;-63
2022/12/26 07:23:14;;;;;;;2.50;2.30;;;10.80;88.80;;;;;;5046432;28;20037;-63
2022/12/26 07:25:40;;;;;;;3.92;2.35;;;10.80;88.90;;;;;;5044950;28;20033;-63
2022/12/26 07:28:06;;;;;;;2.75;1.92;;;10.80;88.80;;;;;;5046195;28;20108;-61
2022/12/26 07:30:31;;;;;;;3.50;2.15;;;10.80;88.70;;;;;;5075291;28;20041;-63
2022/12/26 07:32:57;;;;;;;3.25;2.28;;;10.80;88.80;;;;;;5050660;28;20036;-63
2022/12/26 07:35:23;;;;;;;3.78;2.30;;;10.70;88.70;;;;;;5044000;28;20049;-63
2022/12/26 07:37:49;;;;;;;4.45;2.20;;;10.70;88.80;;;;;;5047497;28;20025;-60
2022/12/26 07:40:14;;;;;;;3.90;2.25;;;10.80;88.80;;;;;;5046186;28;20028;-63
2022/12/26 07:42:40;;;;;;;2.10;1.90;;;10.70;88.70;;;;;;5033942;28;20033;-63
2022/12/26 07:45:06;;;;;;;4.00;2.13;;;10.70;89.30;;;;;;5040675;28;20033;-60
2022/12/26 07:47:32;;;;;;;2.45;2.13;;;10.70;88.70;;;;;;5045669;28;20033;-63
2022/12/26 07:49:58;;;;;;;5.53;2.92;;;10.70;88.80;;;;;;5047745;28;20037;-63
2022/12/26 07:52:23;;;;;;;3.42;1.98;;;10.70;88.70;;;;;;5045837;28;20124;-63
2022/12/26 07:54:49;;;;;;;3.17;1.92;;;10.70;88.80;;;;;;5046673;28;20049;-62
2022/12/26 07:57:15;;;;;;;3.13;2.35;;;10.60;88.70;;;;;;5042018;28;20112;-61
2022/12/26 07:59:40;;;;;;;7.97;2.42;;;10.70;88.80;;;;;;5062712;28;20044;-61
2022/12/26 08:02:09;;;;;;;2.33;2.10;;;10.60;88.70;;;;;;5041675;28;20404;-60
2022/12/26 08:04:35;;;;;;;3.33;2.15;;;10.60;88.80;;;;;;5048095;28;20079;-61
2022/12/26 08:07:00;;;;;;;7.03;2.00;;;10.60;88.90;;;;;;5038657;28;20057;-61
2022/12/26 08:09:26;;;;;;;2.45;1.45;;;10.70;88.80;;;;;;5046873;28;20107;-61
2022/12/26 08:11:52;;;;;;;2.28;1.80;;;10.70;88.80;;;;;;5049262;28;20025;-61
2022/12/26 08:14:17;;;;;;;2.17;1.50;;;10.70;88.70;;;;;;5047594;28;20033;-60
2022/12/26 08:16:43;;;;;;;2.45;2.17;;;10.70;88.70;;;;;;5041525;28;20060;-60
2022/12/26 08:19:10;;;;;;;2.35;1.50;;;10.70;88.70;;;;;;5037874;28;20241;-61
2022/12/26 08:21:36;;;;;;;3.20;1.13;;;10.70;88.60;;;;;;5045840;28;20032;-64
2022/12/26 08:24:02;;;;;;;2.45;1.50;;;10.80;88.50;;;;;;5039313;28;20034;-63
2022/12/26 08:26:28;;;;;;;1.55;1.30;;;10.80;88.40;;;;;;5042388;28;20029;-62
2022/12/26 08:28:55;;;;;;;2.10;1.63;;;10.90;88.50;;;;;;5027746;28;20021;-59
2022/12/26 08:31:21;;;;;;;2.30;1.65;;;10.90;88.30;;;;;;5041476;28;20029;-61
2022/12/26 08:33:47;;;;;;;2.33;1.40;;;11.00;88.10;;;;;;5047204;28;20117;-62
2022/12/26 08:36:15;;;;;;;2.08;1.48;;;11.00;87.80;;;;;;5047855;28;20474;-61
2022/12/26 08:38:41;;;;;;;2.08;1.33;;;11.10;87.70;;;;;;5039319;28;20094;-63
2022/12/26 08:41:07;;;;;;;3.22;1.63;;;11.10;87.40;;;;;;5041473;28;20029;-61
2022/12/26 08:43:33;;;;;;;1.85;1.50;;;11.10;87.30;;;;;;5043952;28;20028;-61
2022/12/26 08:46:02;;;;;;;1.88;1.15;;;11.10;87.30;;;;;;5046997;28;20029;-61
2022/12/26 08:48:29;;;;;;;1.95;0.98;;;11.10;87.40;;;;;;5053508;28;20433;-64
2022/12/26 08:51:00;;;;;;;1.85;1.42;;;11.20;87.30;;;;;;5053731;28;20033;-64
2022/12/26 08:53:27;;;;;;;1.13;1.00;;;11.20;87.30;;;;;;5036840;28;20109;-63
2022/12/26 08:55:54;;;;;;;1.45;1.10;;;11.20;87.30;;;;;;5045362;28;20356;-63
2022/12/26 08:58:20;;;;;;;1.17;0.90;;;11.20;87.30;;;;;;5039906;28;20040;-60
2022/12/26 09:00:46;;;;;;;2.25;0.90;;;11.20;87.40;;;;;;5029777;28;20041;-61
2022/12/26 09:03:11;;;;;;;1.88;1.58;;;11.30;87.40;;;;;;5048995;28;20025;-61
2022/12/26 09:05:37;;;;;;;2.75;1.33;;;11.30;87.10;;;;;;5051115;28;20483;-61
2022/12/26 09:08:03;;;;;;;1.48;0.85;;;11.40;87.10;;;;;;5039348;28;20429;-61
2022/12/26 09:10:29;;;;;;;3.35;1.33;;;11.40;86.90;;;;;;5022758;28;20048;-61
2022/12/26 09:12:55;;;;;;;1.35;0.95;;;11.50;86.80;;;;;;5039372;28;20065;-61
2022/12/26 09:15:21;;;;;;;1.10;1.00;;;11.50;86.50;;;;;;5050275;28;20025;-60
2022/12/26 09:17:47;;;;;;;1.02;0.70;;;11.50;86.50;;;;;;5038943;28;20150;-60
2022/12/26 09:20:12;;;;;;;1.50;1.10;;;11.40;86.40;;;;;;5042389;28;20021;-60
2022/12/26 09:22:50;;;;;;;3.33;1.00;;;11.40;86.50;;;;;;5036500;28;20032;-61
2022/12/26 09:25:20;;;;;;;1.50;0.80;;;11.50;86.20;;;;;;5048567;28;20036;-60
2022/12/26 09:27:47;;;;;;;3.35;0.65;;;11.50;86.20;;;;;;5044100;28;20038;-60
2022/12/26 09:30:13;;;;;;;1.25;0.80;;;11.50;86.20;;;;;;5044126;28;20028;-61
2022/12/26 09:32:39;;;;;;;4.50;1.23;;;11.50;85.90;;;;;;5040706;28;20456;-60
2022/12/26 09:35:05;;;;;;;4.60;0.77;;;11.50;85.40;;;;;;5035650;28;20167;-61
2022/12/26 09:37:31;;;;;;;2.25;1.05;;;11.50;85.40;;;;;;5044529;28;20395;-61
2022/12/26 09:39:57;;;;;;;2.97;1.10;;;11.50;85.50;;;;;;5037445;28;20040;-61
2022/12/26 09:42:31;;;;;;;1.95;1.08;;;11.60;85.60;;;;;;5044720;28;20555;-60
2022/12/26 09:45:17;;;;;;;1.15;1.05;;;11.60;85.60;;;;;;5035785;28;20033;-61
2022/12/26 09:47:55;;;;;;;1.38;0.80;;;11.60;85.40;;;;;;5049407;28;20032;-61
2022/12/26 09:50:39;;;;;;;1.95;1.33;;;11.60;85.50;;;;;;5049346;28;20029;-61
2022/12/26 09:53:10;;;;;;;4.85;1.35;;;11.60;85.70;;;;;;5052395;28;20041;-61
2022/12/26 09:55:44;;;;;;;0.83;0.83;;;11.50;85.90;;;;;;5049124;28;20028;-60
2022/12/26 09:58:27;;;;;;;0.75;0.75;;;11.50;86.30;;;;;;5041890;28;20160;-60
2022/12/26 10:01:14;;;;;;;1.08;0.70;;;11.40;86.60;;;;;;5046522;28;20037;-60
2022/12/26 10:03:52;;;;;;;3.40;1.52;;;11.40;87.00;;;;;;5045351;28;20040;-60
2022/12/26 10:06:21;;;;;;;1.85;1.13;;;11.30;87.40;;;;;;5042837;28;20112;-60
2022/12/26 10:09:05;;;;;;;0.88;0.68;;;11.30;87.50;;;;;;5046290;28;20098;-61
2022/12/26 10:11:40;;;;;;;2.28;0.90;;;11.30;87.50;;;;;;5040370;28;20122;-61
2022/12/26 10:14:45;;;;;;;3.78;0.95;;;11.30;87.70;;;;;;5042465;28;20447;-61
2022/12/26 10:17:30;;;;;;;1.17;0.75;;;11.30;87.70;;;;;;5047846;28;20053;-61
2022/12/26 10:20:10;;;;;;;6.93;1.40;;;11.30;87.80;;;;;;5041199;28;20113;-60
2022/12/26 10:22:55;;;;;;;3.65;0.82;;;11.20;88.30;;;;;;5031448;28;20025;-60
2022/12/26 10:25:24;;;;;;;2.42;1.25;;;11.10;87.80;;;;;;5045606;28;20107;-61
2022/12/26 10:27:51;;;;;;;1.23;0.85;;;11.00;87.60;;;;;;5040419;28;20028;-61
2022/12/26 10:30:22;;;;;;;5.05;1.27;;;11.00;87.60;;;;;;5036493;28;20025;-61
2022/12/26 10:32:57;;;;;;;5.78;1.33;;;11.10;87.70;;;;;;5032555;28;20152;-60
2022/12/26 10:35:41;;;;;;;1.23;0.77;;;11.00;87.60;;;;;;5032330;28;20163;-61
2022/12/26 10:38:41;;;;;;;2.50;1.05;;;11.10;87.50;;;;;;5040273;28;20053;-60
2022/12/26 10:41:19;;;;;;;5.20;1.33;;;11.10;87.40;;;;;;5035604;28;20033;-60
2022/12/26 10:43:45;;;;;;;1.95;1.10;;;11.10;87.60;;;;;;5042786;28;20036;-60
2022/12/26 10:46:16;;;;;;;1.90;1.15;;;11.00;87.40;;;;;;5046033;28;20033;-61
2022/12/26 10:48:43;;;;;;;2.53;0.90;;;11.00;87.30;;;;;;5050041;28;20021;-61
2022/12/26 10:51:09;;;;;;;2.90;1.10;;;11.00;87.30;;;;;;5045831;28;20039;-61
2022/12/26 10:53:39;;;;;;;0.85;0.70;;;11.00;87.40;;;;;;5039754;28;20435;-61
2022/12/26 10:56:06;;;;;;;7.57;1.15;;;11.00;87.40;;;;;;5045408;28;20029;-61
2022/12/26 10:58:34;;;;;;;5.93;1.83;;;11.10;87.20;;;;;;5048038;28;20088;-61
2022/12/26 11:01:28;;;;;;;6.95;1.40;;;11.00;86.80;;;;;;5046377;28;20041;-61
2022/12/26 11:03:55;;;;;;;5.57;1.13;;;10.90;84.90;;;;;;5053638;28;20472;-61
2022/12/26 11:06:26;;;;;;;2.67;1.10;;;10.70;85.20;;;;;;5046806;28;20021;-61
2022/12/26 11:08:53;;;;;;;0.90;0.60;;;10.60;84.60;;;;;;5046828;28;20579;-61
2022/12/26 11:11:46;;;;;;;6.40;1.35;;;10.50;84.50;;;;;;5053842;28;20040;-61
2022/12/26 11:14:37;;;;;;;7.30;1.23;;;10.50;84.50;;;;;;5040193;28;20021;-61
2022/12/26 11:17:13;;;;;;;2.42;1.00;;;10.50;83.90;;;;;;5048475;28;20384;-61
2022/12/26 11:19:42;;;;;;;2.47;0.80;;;10.50;83.50;;;;;;5047111;28;20543;-61
2022/12/26 11:22:24;;;;;;;4.00;1.40;;;10.50;82.90;;;;;;5035695;28;20121;-61
2022/12/26 11:25:08;;;;;;;0.95;0.60;;;10.50;82.20;;;;;;5041217;28;20056;-61
2022/12/26 11:27:35;;;;;;;2.13;1.42;;;10.50;82.40;;;;;;5039971;28;20037;-60
2022/12/26 11:30:13;;;;;;;3.58;0.90;;;10.60;82.20;;;;;;5034767;28;20395;-61
2022/12/26 11:32:45;;;;;;;2.97;1.13;;;10.60;81.80;;;;;;5044492;28;20029;-61
2022/12/26 11:35:22;;;;;;;11.02;1.27;;;10.60;81.80;;;;;;5048630;28;20040;-60
2022/12/26 11:37:56;;;;;;;2.30;0.60;;;10.90;81.20;;;;;;5034663;28;20484;-61
2022/12/26 11:40:33;;;;;;;1.23;0.55;;;11.40;80.10;;;;;;5045579;28;20433;-61
2022/12/26 11:43:01;;;;;;;2.80;1.55;;;11.90;78.70;;;;;;5044860;28;20013;-60
2022/12/26 11:45:30;;;;;;;1.15;0.80;;;12.20;76.10;;;;;;5040953;28;20372;-60
2022/12/26 11:47:58;;;;;;;1.70;1.08;;;12.30;75.20;;;;;;5038880;28;20036;-60
2022/12/26 11:50:27;;;;;;;2.00;0.70;;;12.30;75.40;;;;;;5047269;28;20028;-61
2022/12/26 11:52:56;;;;;;;5.85;1.55;;;12.20;74.70;;;;;;5035595;28;20032;-60
2022/12/26 11:55:25;;;;;;;3.40;0.93;;;11.80;74.40;;;;;;5047939;28;20025;-60
2022/12/26 11:58:08;;;;;;;1.27;0.65;;;11.40;75.70;;;;;;5048791;28;20025;-60
2022/12/26 12:00:40;;;;;;;2.80;0.82;;;11.20;76.40;;;;;;5044161;28;20041;-61
2022/12/26 12:03:15;;;;;;;2.90;1.00;;;11.10;76.10;;;;;;5047708;28;20028;-61
2022/12/26 12:05:53;;;;;;;2.63;0.77;;;11.10;76.30;;;;;;5048897;28;20475;-60
2022/12/26 12:08:31;;;;;;;5.20;0.93;;;11.00;76.00;;;;;;5049290;28;20028;-61
2022/12/26 12:11:06;;;;;;;2.53;0.50;;;10.90;75.90;;;;;;5048692;28;20471;-61
2022/12/26 12:13:44;;;;;;;1.83;0.60;;;10.70;76.10;;;;;;5049194;28;20112;-61
2022/12/26 12:16:51;;;;;;;2.40;0.77;;;10.80;75.90;;;;;;5049027;28;20040;-61
2022/12/26 12:19:46;;;;;;;1.30;0.52;;;10.90;74.70;;;;;;5053163;28;20111;-60
2022/12/26 12:22:47;;;;;;;6.82;1.27;;;11.40;74.50;;;;;;5042583;28;20372;-61
2022/12/26 12:25:26;;;;;;;2.25;0.82;;;12.10;72.20;;;;;;5052443;28;20044;-61
2022/12/26 12:27:58;;;;;;;1.73;0.90;;;12.60;70.70;;;;;;5045559;28;20627;-60
2022/12/26 12:30:41;;;;;;;6.15;1.35;;;12.80;70.00;;;;;;5046664;28;20025;-61
2022/12/26 12:33:24;;;;;;;4.13;0.60;;;13.00;68.60;;;;;;5052501;28;20161;-60
2022/12/26 12:36:15;;;;;;;4.35;1.27;;;13.20;68.70;;;;;;5051758;28;20527;-60
2022/12/26 12:39:01;;;;;;;1.67;0.85;;;13.40;68.10;;;;;;5044955;28;20021;-61
2022/12/26 12:42:00;;;;;;;3.13;1.10;;;13.40;67.20;;;;;;5039112;28;20047;-61
2022/12/26 12:44:30;;;;;;;2.20;0.43;;;12.80;67.30;;;;;;5039335;28;20017;-61
2022/12/26 12:47:02;;;;;;;2.13;0.80;;;12.40;68.20;;;;;;5042625;28;20021;-61
2022/12/26 12:49:42;;;;;;;2.40;0.63;;;12.00;69.60;;;;;;5051671;28;20039;-61
2022/12/26 12:52:32;;;;;;;1.48;0.77;;;11.70;70.00;;;;;;5052101;28;20025;-62
2022/12/26 12:55:15;;;;;;;2.22;0.57;;;11.70;70.40;;;;;;5051198;28;20032;-66
2022/12/26 12:57:59;;;;;;;1.23;0.57;;;12.20;69.90;;;;;;5039033;28;20048;-61
2022/12/26 13:00:33;;;;;;;0.50;0.47;;;12.20;68.90;;;;;;5052506;28;20032;-61
2022/12/26 13:03:03;;;;;;;1.10;0.40;;;12.30;69.30;;;;;;5059725;28;20479;-62
2022/12/26 13:05:38;;;;;;;2.88;0.65;;;12.20;68.60;;;;;;5052301;28;20021;-60
2022/12/26 13:08:38;;;;;;;5.07;0.90;;;12.10;68.40;;;;;;5052829;28;20032;-61
2022/12/26 13:11:16;;;;;;;2.92;1.48;;;12.00;68.90;;;;;;5041093;28;20159;-61
2022/12/26 13:13:49;;;;;;;5.50;1.30;;;11.80;69.30;;;;;;5052254;28;20028;-61
2022/12/26 13:16:29;;;;;;;1.70;0.40;;;11.70;69.60;;;;;;5050258;28;20037;-60
2022/12/26 13:19:03;;;;;;;2.95;0.95;;;11.70;70.00;;;;;;5041314;28;20029;-61
2022/12/26 13:21:33;;;;;;;1.85;1.02;;;11.90;70.00;;;;;;5052158;28;20028;-60
2022/12/26 13:24:24;;;;;;;1.60;0.65;;;12.00;69.40;;;;;;5051172;28;20472;-61
2022/12/26 13:27:03;;;;;;;4.97;0.68;;;12.30;69.10;;;;;;5050718;28;20044;-62
2022/12/26 13:29:42;;;;;;;0.93;0.55;;;12.10;67.90;;;;;;5050827;28;20036;-60
2022/12/26 13:32:29;;;;;;;2.33;0.80;;;11.90;68.80;;;;;;5052414;28;20067;-61
2022/12/26 13:35:00;;;;;;;1.15;0.40;;;11.90;68.90;;;;;;5039092;28;20052;-61
2022/12/26 13:37:37;;;;;;;0.57;0.57;;;11.70;68.90;;;;;;5051605;28;20055;-62
2022/12/26 13:40:16;;;;;;;1.23;0.73;;;11.50;68.90;;;;;;5050137;28;20043;-62
2022/12/26 13:45:49;;;;;;;1.58;0.75;;;11.90;68.40;;;;;;5044772;28;20047;-62
2022/12/26 13:48:15;;;;;;;0.95;0.77;;;12.30;68.20;;;;;;5042765;28;20091;-61
2022/12/26 13:50:52;;;;;;;6.22;0.73;;;12.50;67.10;;;;;;5040559;28;20041;-61
2022/12/26 13:53:24;;;;;;;1.90;0.68;;;12.70;66.20;;;;;;5042744;28;20028;-58
2022/12/26 13:56:01;;;;;;;2.00;1.02;;;12.60;66.00;;;;;;5046268;28;20361;-59
2022/12/26 13:58:54;;;;;;;1.80;0.75;;;12.50;66.70;;;;;;5037685;28;20043;-59
2022/12/26 14:01:52;;;;;;;1.58;0.80;;;12.70;65.70;;;;;;5044404;28;20072;-59
2022/12/26 14:04:42;;;;;;;1.10;0.50;;;13.30;63.20;;;;;;5031586;28;20383;-60
2022/12/26 14:07:26;;;;;;;1.00;0.90;;;13.60;62.30;;;;;;5046055;28;20037;-60
2022/12/26 14:09:52;;;;;;;2.50;1.20;;;13.80;62.10;;;;;;5043156;28;20451;-60
2022/12/26 14:12:29;;;;;;;1.35;0.80;;;14.10;60.80;;;;;;5046971;28;20025;-61
2022/12/26 14:14:54;;;;;;;1.52;0.50;;;13.90;59.90;;;;;;5047178;28;20029;-60
2022/12/26 14:17:58;;;;;;;3.50;1.48;;;13.30;60.60;;;;;;5045835;28;20036;-60
2022/12/26 14:21:01;;;;;;;2.20;0.82;;;12.60;60.90;;;;;;5046870;28;20036;-60
2022/12/26 14:23:27;;;;;;;1.00;0.63;;;11.90;61.60;;;;;;5039516;28;20040;-60
2022/12/26 14:25:55;;;;;;;1.60;0.55;;;11.30;62.70;;;;;;5044536;28;20119;-60
2022/12/26 14:28:42;;;;;;;1.23;0.40;;;11.00;63.30;;;;;;5044616;28;20028;-61
2022/12/26 14:31:22;;;;;;;1.08;0.32;;;10.70;64.30;;;;;;5044855;28;20400;-61
2022/12/26 14:33:53;;;;;;;1.58;0.60;;;10.50;65.30;;;;;;5044124;28;20384;-59
2022/12/26 14:36:32;;;;;;;2.67;1.10;;;10.30;65.10;;;;;;5035096;28;20411;-65
2022/12/26 14:39:17;;;;;;;0.30;0.30;;;10.20;65.00;;;;;;5034499;28;20025;-62
2022/12/26 14:44:49;;;;;;;0.20;0.20;;;10.00;66.80;;;;;;5042644;28;20545;-62
2022/12/26 14:47:44;;;;;;;1.50;0.88;;;9.90;66.90;;;;;;5044295;28;20787;-61
2022/12/26 14:50:31;;;;;;;5.68;0.90;;;9.90;66.80;;;;;;5039298;28;20099;-61
2022/12/26 14:53:19;;;;;;;1.58;0.70;;;9.80;66.80;;;;;;5041441;28;20102;-63
2022/12/26 14:56:06;;;;;;;7.57;0.73;;;9.70;67.40;;;;;;5043215;28;20558;-64
2022/12/26 14:58:45;;;;;;;1.63;0.50;;;9.50;67.30;;;;;;5043714;28;20110;-64
2022/12/26 15:01:16;;;;;;;3.63;1.05;;;9.40;67.90;;;;;;5044262;28;20107;-61
2022/12/26 15:04:20;;;;;;;2.42;0.50;;;9.30;67.80;;;;;;5042832;28;20041;-61
2022/12/26 15:07:30;;;;;;;1.95;0.63;;;9.30;68.20;;;;;;5040835;28;20518;-65
2022/12/26 15:10:26;;;;;;;4.25;0.85;;;9.20;68.50;;;;;;5031519;28;20115;-64
2022/12/26 15:13:16;;;;;;;4.22;1.08;;;9.20;68.90;;;;;;5041372;28;20051;-62
2022/12/26 15:16:01;;;;;;;0.73;0.43;;;9.10;68.90;;;;;;5037879;28;20133;-63
2022/12/26 15:18:46;;;;;;;1.42;0.75;;;9.00;69.40;;;;;;5040882;28;20380;-64
2022/12/26 15:21:43;;;;;;;1.45;0.75;;;9.00;69.40;;;;;;5049258;28;20112;-64
2022/12/26 15:24:33;;;;;;;1.95;0.90;;;9.00;70.30;;;;;;5043313;28;20449;-65
2022/12/26 15:27:14;;;;;;;4.70;0.93;;;8.90;69.60;;;;;;5035918;28;20025;-60